aviador You're here:

KGRI Decoded Metar

GRAND ISLAND in NE, USA
Report Time2017-08-06 07:53:00
UTC Time2017-08-22 15:05:13
Flight Rules Old
Wind050° at 03 kt
W.Decomp.*RWY 35: 1.8 kt HW 2.4 kt RCW
RWY 13: 0.2 kt HW 3 kt LCW
W.Rank050° ranks 32
Current wind is below 050° avg. (8.3)
Visibility8047 m
Phenomena:Mist
Clouds:Overcast 007 Hf
Ceiling700 ft
Temp17°C (ISA +6)
Dew Point17°C (100% RH)
QNH1015 hPa
Density Alt2,703 ft
Elevation1,841 ft
Report Wrong Elevation
Raw Report
METAR KGRI 060753Z AUTO 05003KT 5SM BR OVC007 17/17 A2997 RMK AO2 CIG
005V010 SLP143 T01720172=

Extra information for KGRI:More info

Metar Taf Metar & Taf Last 4 Metars F.Rules Stats Wind Profile Meteogram Temp Stats Airport Information Weather charts Add Link Nearby VenuesMetar ALERT Operation Metar Decoded Social comments

AIRNAV info for KGRI